Overview Statistics Trail Chart Weather Telemetry Raw packets
 

This is the latest recevied weather packets stored in our database for station/object EA7URS-13. If no packets are shown the sender has not sent any weather packets the latest 10 day(s).

<< 54 55 56 57 58 59 60 >>
Time Temp. Humidity Pressure Rain* Wind** Luminosity Snow
1788294959 27.22° C 57% 1010.8 hPa 0 mm - 0 W/m² -
1788294658 27.22° C 57% 1010.8 hPa 0 mm - 0 W/m² -
1788294357 27.78° C 55% 1010.5 hPa 0 mm - 0 W/m² -
1788294056 27.78° C 55% 1010.5 hPa 0 mm - 0 W/m² -
1788293755 28.33° C 54% 1010.1 hPa 0 mm - 0 W/m² -
1788293454 28.33° C 54% 1010.1 hPa 0 mm - 0 W/m² -
1788293153 28.33° C 57% 1009.9 hPa 0 mm - 0 W/m² -
1788292852 28.33° C 57% 1009.9 hPa 0 mm - 0 W/m² -
1788292550 28.89° C 57% 1009.8 hPa 0 mm - 0 W/m² -
1788292249 28.89° C 57% 1009.8 hPa 0 mm - 0 W/m² -
1788291948 30° C 50% 1009.4 hPa 0 mm - 0 W/m² -
1788291647 30° C 50% 1009.4 hPa 0 mm - 0 W/m² -
1788291346 30° C 46% 1009.1 hPa 0 mm - 0 W/m² -
1788291045 30° C 46% 1009.1 hPa 0 mm - 0 W/m² -
1788290744 30.56° C 45% 1008.9 hPa 0 mm - 0 W/m² -
1788290443 30.56° C 45% 1008.9 hPa 0 mm - 0 W/m² -
1788290142 31.11° C 42% 1008.9 hPa 0 mm - 0 W/m² -
1788289841 31.11° C 42% 1008.9 hPa 0 mm - 0 W/m² -
1788289540 31.67° C 41% 1008.6 hPa 0 mm - 1 W/m² -
1788289238 31.67° C 41% 1008.6 hPa 0 mm - 1 W/m² -
1788288937 33.33° C 31% 1008.7 hPa 0 mm - 4 W/m² -
1788288636 33.33° C 31% 1008.7 hPa 0 mm - 4 W/m² -
1788288335 33.33° C 30% 1008.4 hPa 0 mm - 7 W/m² -
1788288034 33.33° C 30% 1008.4 hPa 0 mm - 7 W/m² -
1788287733 33.89° C 28% 1008.3 hPa 0 mm - 15 W/m² -

* Rain latest hour (hover to see other rain measurements)
** Current wind speed in m/s (hover to see current wind gust speed)